Time;durP1;ratioP1;P1;durP2;ratioP2;P2;SDS_P1;SDS_P2;PMS_P1;PMS_P2;Temp;Humidity;BMP_temperature;BMP_pressure;BME280_temperature;BME280_humidity;BME280_pressure;Samples;Min_cycle;Max_cycle;Signal;HPM_P1;HPM_P2
2023/07/18 00:00:33;;;;;;;8.23;2.97;;;15.50;99.90;;;;;;6271987;22;20023;-69
2023/07/18 00:02:59;;;;;;;4.78;3.10;;;15.60;99.90;;;;;;6271794;22;20118;-69
2023/07/18 00:05:25;;;;;;;9.40;2.90;;;15.50;99.90;;;;;;6271175;22;20019;-69
2023/07/18 00:07:51;;;;;;;8.27;4.10;;;15.50;99.90;;;;;;6219128;22;20011;-69
2023/07/18 00:10:19;;;;;;;12.80;3.33;;;15.50;99.90;;;;;;6244287;22;20347;-69
2023/07/18 00:12:45;;;;;;;10.88;3.72;;;15.50;99.90;;;;;;6271705;22;20019;-69
2023/07/18 00:15:12;;;;;;;4.60;2.95;;;15.50;99.90;;;;;;6271524;22;20022;-69
2023/07/18 00:17:40;;;;;;;11.00;3.70;;;15.50;99.90;;;;;;6244443;22;20019;-69
2023/07/18 00:20:10;;;;;;;8.93;3.20;;;15.60;99.90;;;;;;6271423;22;20070;-69
2023/07/18 00:22:41;;;;;;;9.18;3.40;;;15.50;99.90;;;;;;6271619;22;20027;-69
2023/07/18 00:25:13;;;;;;;8.85;3.28;;;15.50;99.90;;;;;;6271368;22;20098;-69
2023/07/18 00:27:40;;;;;;;6.55;3.58;;;15.50;99.90;;;;;;6273591;22;20035;-69
2023/07/18 00:30:09;;;;;;;6.85;3.45;;;15.50;99.90;;;;;;6273442;22;20338;-69
2023/07/18 00:32:36;;;;;;;9.40;3.83;;;15.40;99.90;;;;;;6245850;22;20027;-69
2023/07/18 00:35:03;;;;;;;5.40;2.97;;;15.40;99.90;;;;;;6273220;22;20007;-69
2023/07/18 00:37:30;;;;;;;8.63;3.80;;;15.40;99.90;;;;;;6272928;22;20414;-69
2023/07/18 00:39:56;;;;;;;10.48;3.70;;;15.40;99.90;;;;;;6273482;22;20054;-69
2023/07/18 00:42:21;;;;;;;7.68;3.55;;;15.30;99.90;;;;;;6272993;22;20024;-69
2023/07/18 00:44:50;;;;;;;11.80;3.97;;;15.30;99.90;;;;;;6273627;22;20050;-69
2023/07/18 00:47:22;;;;;;;4.82;3.25;;;15.20;99.90;;;;;;6246270;22;20020;-68
2023/07/18 00:49:47;;;;;;;6.80;3.00;;;15.20;99.90;;;;;;6245962;22;20461;-69
2023/07/18 00:52:14;;;;;;;7.55;3.60;;;15.20;99.90;;;;;;6273430;22;20016;-69
2023/07/18 00:54:42;;;;;;;7.80;3.30;;;15.20;99.90;;;;;;6273190;22;20368;-69
2023/07/18 00:57:08;;;;;;;9.93;3.60;;;15.20;99.90;;;;;;6246017;22;20023;-69
2023/07/18 00:59:35;;;;;;;8.75;3.42;;;15.20;99.90;;;;;;6272987;22;20101;-68
2023/07/18 01:02:02;;;;;;;6.72;3.28;;;15.20;99.90;;;;;;6272752;22;20023;-69
2023/07/18 01:04:28;;;;;;;6.50;3.40;;;15.20;99.90;;;;;;6245251;22;20016;-69
2023/07/18 01:06:55;;;;;;;7.68;3.63;;;15.20;99.90;;;;;;6245458;22;20424;-69
2023/07/18 01:09:20;;;;;;;10.25;3.25;;;15.20;99.90;;;;;;6273044;22;20015;-69
2023/07/18 01:11:46;;;;;;;5.63;3.58;;;15.20;99.90;;;;;;6245421;22;20024;-69
2023/07/18 01:14:12;;;;;;;8.85;4.22;;;15.10;99.90;;;;;;6245336;22;20083;-69
2023/07/18 01:16:37;;;;;;;5.28;3.10;;;15.20;99.90;;;;;;6220189;22;20030;-69
2023/07/18 01:19:03;;;;;;;7.47;3.42;;;15.10;99.90;;;;;;6272281;22;20016;-69
2023/07/18 01:21:29;;;;;;;8.73;3.30;;;15.10;99.90;;;;;;6245274;22;20054;-69
2023/07/18 01:23:54;;;;;;;10.52;3.72;;;15.10;99.90;;;;;;6272895;22;20555;-69
2023/07/18 01:26:20;;;;;;;7.35;3.40;;;15.10;99.90;;;;;;6245421;22;20024;-69
2023/07/18 01:28:46;;;;;;;7.70;3.30;;;15.00;99.90;;;;;;6272320;22;20023;-68
2023/07/18 01:31:12;;;;;;;7.00;3.35;;;15.00;99.90;;;;;;6272664;22;20016;-68
2023/07/18 01:33:38;;;;;;;9.20;3.70;;;15.00;99.90;;;;;;6272442;22;20049;-69
2023/07/18 01:36:03;;;;;;;9.93;3.78;;;15.00;99.90;;;;;;6245294;22;20024;-69
2023/07/18 01:38:29;;;;;;;3.92;3.13;;;15.10;99.90;;;;;;6272189;22;20028;-68
2023/07/18 01:40:56;;;;;;;6.20;3.50;;;15.00;99.90;;;;;;6245436;22;20030;-68
2023/07/18 01:43:24;;;;;;;9.23;3.65;;;14.90;99.90;;;;;;6220045;22;20020;-68
2023/07/18 01:45:50;;;;;;;7.75;3.63;;;15.00;99.90;;;;;;6272291;22;20343;-69
2023/07/18 01:48:18;;;;;;;7.80;3.88;;;15.00;99.90;;;;;;6244777;22;20016;-69
2023/07/18 01:50:43;;;;;;;12.13;3.65;;;15.00;99.90;;;;;;6245103;22;20015;-68
2023/07/18 01:53:11;;;;;;;13.20;3.85;;;15.00;99.90;;;;;;6244983;22;20082;-69
2023/07/18 01:55:40;;;;;;;5.80;4.15;;;15.00;99.90;;;;;;6272345;22;20023;-69
2023/07/18 01:58:06;;;;;;;7.72;3.53;;;15.00;99.90;;;;;;6272370;22;20376;-69
2023/07/18 02:00:32;;;;;;;8.90;3.83;;;15.10;99.90;;;;;;6272040;22;20030;-69
2023/07/18 02:02:58;;;;;;;8.30;3.72;;;15.10;99.90;;;;;;6244612;22;20024;-68
2023/07/18 02:05:25;;;;;;;9.20;3.38;;;15.10;99.90;;;;;;6272206;22;20031;-69
2023/07/18 02:07:52;;;;;;;6.07;3.50;;;15.10;99.90;;;;;;6272351;22;20346;-69
2023/07/18 02:10:20;;;;;;;12.13;4.00;;;15.10;99.90;;;;;;6271896;22;20051;-69
2023/07/18 02:12:46;;;;;;;8.65;3.65;;;15.10;99.90;;;;;;6272385;22;20016;-69
2023/07/18 02:15:15;;;;;;;7.05;3.88;;;15.10;99.90;;;;;;6244564;22;20051;-69
2023/07/18 02:17:42;;;;;;;5.20;3.22;;;15.10;99.90;;;;;;6272258;22;20523;-69
2023/07/18 02:20:11;;;;;;;8.23;3.30;;;15.10;99.90;;;;;;6272418;22;20535;-69
2023/07/18 02:22:38;;;;;;;8.18;3.45;;;15.10;99.90;;;;;;6244629;22;20043;-68
2023/07/18 02:25:05;;;;;;;9.18;3.30;;;15.00;99.90;;;;;;6244724;22;20046;-68
2023/07/18 02:27:35;;;;;;;6.47;3.80;;;14.90;99.90;;;;;;6272097;22;20051;-69
2023/07/18 02:30:02;;;;;;;6.60;3.50;;;15.00;99.90;;;;;;6271564;22;20651;-69
2023/07/18 02:32:31;;;;;;;8.93;3.53;;;15.00;99.90;;;;;;6271780;22;20034;-69
2023/07/18 02:34:57;;;;;;;7.05;3.30;;;15.00;99.90;;;;;;6272150;22;20289;-69
2023/07/18 02:37:25;;;;;;;5.90;3.20;;;15.00;99.90;;;;;;6244244;22;20030;-69
2023/07/18 02:39:50;;;;;;;12.23;4.25;;;14.90;99.90;;;;;;6244686;22;20020;-68
2023/07/18 02:42:17;;;;;;;7.13;3.58;;;14.90;99.90;;;;;;6244734;22;20034;-68
2023/07/18 02:44:44;;;;;;;7.90;3.22;;;14.80;99.90;;;;;;6271579;22;20077;-68
2023/07/18 02:47:10;;;;;;;8.85;3.78;;;14.80;99.90;;;;;;6271865;22;20098;-69
2023/07/18 02:49:35;;;;;;;11.88;4.43;;;14.70;99.90;;;;;;6271323;22;20051;-68
2023/07/18 02:52:02;;;;;;;8.98;3.72;;;14.80;99.90;;;;;;6271851;22;20438;-68
2023/07/18 02:54:29;;;;;;;9.23;3.85;;;14.80;99.90;;;;;;6244557;22;20051;-68
2023/07/18 02:56:56;;;;;;;9.60;3.90;;;14.80;99.90;;;;;;6244405;22;20362;-69
2023/07/18 02:59:22;;;;;;;8.30;3.97;;;14.80;99.90;;;;;;6244106;22;20026;-69
2023/07/18 03:01:54;;;;;;;11.15;3.63;;;14.70;99.90;;;;;;6272132;22;20073;-69
2023/07/18 03:04:20;;;;;;;8.50;3.85;;;14.70;99.90;;;;;;6272604;22;20024;-69
2023/07/18 03:06:55;;;;;;;11.80;3.67;;;14.70;99.90;;;;;;6272039;22;20008;-68
2023/07/18 03:09:21;;;;;;;6.25;3.67;;;14.70;99.90;;;;;;6271928;22;20091;-69
2023/07/18 03:11:49;;;;;;;8.63;3.15;;;14.70;99.90;;;;;;6271694;22;20073;-68
2023/07/18 03:14:18;;;;;;;8.98;3.38;;;14.70;99.90;;;;;;6271232;22;20020;-69
2023/07/18 03:16:45;;;;;;;6.00;3.13;;;14.70;99.90;;;;;;6244473;22;20023;-69
2023/07/18 03:19:12;;;;;;;9.18;3.65;;;14.70;99.90;;;;;;6244287;22;20016;-69
2023/07/18 03:21:38;;;;;;;8.18;3.65;;;14.70;99.90;;;;;;6271692;22;20438;-69
2023/07/18 03:24:07;;;;;;;11.57;3.60;;;14.70;99.90;;;;;;6271841;22;20035;-69
2023/07/18 03:26:36;;;;;;;5.65;3.28;;;14.70;99.90;;;;;;6271356;22;20065;-69
2023/07/18 03:29:04;;;;;;;7.07;3.50;;;14.70;99.90;;;;;;6244027;22;20023;-69
2023/07/18 03:31:30;;;;;;;9.02;3.53;;;14.70;99.90;;;;;;6271647;22;20023;-68
2023/07/18 03:33:55;;;;;;;7.65;3.70;;;14.70;99.90;;;;;;6271404;22;20509;-69
2023/07/18 03:36:21;;;;;;;6.90;3.63;;;14.70;99.90;;;;;;6271614;22;20072;-68
2023/07/18 03:38:46;;;;;;;6.50;3.58;;;14.60;99.90;;;;;;6271105;22;20427;-69
2023/07/18 03:41:13;;;;;;;10.00;4.85;;;14.70;99.90;;;;;;6271789;22;20024;-68
2023/07/18 03:43:38;;;;;;;9.68;4.00;;;14.70;99.90;;;;;;6271470;22;20039;-69
2023/07/18 03:46:04;;;;;;;9.27;3.38;;;14.70;99.90;;;;;;6271736;22;20027;-69
2023/07/18 03:48:30;;;;;;;7.15;3.50;;;14.70;99.90;;;;;;6271392;22;20027;-68
2023/07/18 03:50:55;;;;;;;7.30;3.72;;;14.70;99.90;;;;;;6271576;22;20477;-68
2023/07/18 03:53:21;;;;;;;7.63;3.67;;;14.70;99.90;;;;;;6270891;22;20015;-69
2023/07/18 03:55:47;;;;;;;6.10;3.17;;;14.70;99.90;;;;;;6270998;22;20051;-68
2023/07/18 03:58:13;;;;;;;7.97;3.80;;;14.70;99.90;;;;;;6243750;22;20030;-69
2023/07/18 04:00:38;;;;;;;11.65;3.38;;;14.70;99.90;;;;;;6272055;22;20027;-69
2023/07/18 04:03:04;;;;;;;11.23;3.90;;;14.70;99.90;;;;;;6273440;22;20026;-69
2023/07/18 04:05:30;;;;;;;10.10;3.35;;;14.70;99.90;;;;;;6273228;22;20102;-69
2023/07/18 04:07:55;;;;;;;8.48;3.72;;;14.70;99.90;;;;;;6245766;22;20482;-69
2023/07/18 04:10:21;;;;;;;6.78;3.17;;;14.70;99.90;;;;;;6273495;22;20015;-69
2023/07/18 04:12:47;;;;;;;8.00;3.67;;;14.70;99.90;;;;;;6272854;22;20102;-68
2023/07/18 04:15:14;;;;;;;9.23;3.33;;;14.70;99.90;;;;;;6273380;22;20020;-69
2023/07/18 04:17:40;;;;;;;12.70;4.20;;;14.70;99.90;;;;;;6245932;22;20095;-68
2023/07/18 04:20:06;;;;;;;15.15;3.85;;;14.70;99.90;;;;;;6245909;22;20454;-69
2023/07/18 04:22:32;;;;;;;9.82;3.42;;;14.70;99.90;;;;;;6246025;22;20042;-69
2023/07/18 04:24:58;;;;;;;9.52;3.65;;;14.80;99.90;;;;;;6272831;22;20376;-69
2023/07/18 04:27:26;;;;;;;9.70;3.55;;;14.80;99.90;;;;;;6272236;22;20019;-68
2023/07/18 04:29:53;;;;;;;6.65;3.20;;;14.80;99.90;;;;;;6246131;22;20022;-68
2023/07/18 04:32:19;;;;;;;7.53;3.38;;;14.80;99.90;;;;;;6273324;22;20059;-69
2023/07/18 04:34:47;;;;;;;6.63;3.15;;;14.90;99.90;;;;;;6273009;22;20016;-69
2023/07/18 04:37:13;;;;;;;6.45;3.53;;;14.90;99.90;;;;;;6272820;22;20015;-69
2023/07/18 04:39:38;;;;;;;10.15;4.05;;;14.90;99.90;;;;;;6272953;22;20026;-68
2023/07/18 04:42:04;;;;;;;8.82;3.10;;;15.00;99.90;;;;;;6272883;22;20019;-69
2023/07/18 04:44:30;;;;;;;13.02;3.85;;;15.00;99.90;;;;;;6273079;22;20394;-68
2023/07/18 04:46:56;;;;;;;8.98;3.35;;;15.00;99.90;;;;;;6245639;22;20051;-68
2023/07/18 04:49:24;;;;;;;11.02;3.45;;;15.00;99.90;;;;;;6273105;22;20084;-68
2023/07/18 04:51:51;;;;;;;6.95;3.17;;;15.10;99.90;;;;;;6272473;22;20042;-68
2023/07/18 04:54:18;;;;;;;9.00;3.20;;;15.10;99.90;;;;;;6245617;22;20035;-68
2023/07/18 04:56:43;;;;;;;7.22;3.10;;;15.10;99.90;;;;;;6272729;22;20051;-69
2023/07/18 04:59:09;;;;;;;8.80;2.83;;;15.20;99.90;;;;;;6245587;22;20054;-68
2023/07/18 05:01:36;;;;;;;8.07;2.92;;;15.20;99.90;;;;;;6272892;22;20015;-68
2023/07/18 05:04:03;;;;;;;9.07;2.95;;;15.20;99.90;;;;;;6245309;22;20449;-69
2023/07/18 05:06:28;;;;;;;12.55;3.55;;;15.20;99.90;;;;;;6272585;22;20407;-68
2023/07/18 05:08:54;;;;;;;7.82;3.00;;;15.20;99.90;;;;;;6245040;22;20050;-68
2023/07/18 05:11:20;;;;;;;6.60;3.00;;;15.20;99.90;;;;;;6272981;22;20015;-68
2023/07/18 05:13:46;;;;;;;8.45;3.13;;;15.30;99.90;;;;;;6272805;22;20012;-68
2023/07/18 05:16:11;;;;;;;11.73;3.33;;;15.30;99.90;;;;;;6273217;22;20027;-68
2023/07/18 05:18:37;;;;;;;6.25;3.63;;;15.30;99.90;;;;;;6220384;22;20107;-68
2023/07/18 05:21:03;;;;;;;9.15;3.08;;;15.40;99.90;;;;;;6272967;22;20058;-69
2023/07/18 05:23:28;;;;;;;4.03;2.53;;;15.30;99.90;;;;;;6245116;22;20457;-69
2023/07/18 05:25:56;;;;;;;7.25;2.90;;;15.30;99.90;;;;;;6272738;22;20020;-69
2023/07/18 05:28:22;;;;;;;12.38;2.75;;;15.40;99.90;;;;;;6272807;22;20015;-69
2023/07/18 05:30:48;;;;;;;9.30;2.65;;;15.50;99.90;;;;;;6272688;22;20012;-69
2023/07/18 05:33:14;;;;;;;7.47;2.88;;;15.70;99.90;;;;;;6272590;22;20023;-69
2023/07/18 05:35:40;;;;;;;13.20;3.10;;;15.90;99.90;;;;;;6245092;22;20034;-69
2023/07/18 05:38:07;;;;;;;8.80;3.42;;;16.10;99.90;;;;;;6244552;22;20035;-69
2023/07/18 05:40:32;;;;;;;7.70;3.08;;;16.10;99.90;;;;;;6272525;22;20023;-69
2023/07/18 05:42:58;;;;;;;9.40;2.92;;;16.10;99.90;;;;;;6272138;22;20031;-69
2023/07/18 05:45:24;;;;;;;6.68;2.55;;;16.20;99.90;;;;;;6272397;22;20094;-69
2023/07/18 05:47:49;;;;;;;9.77;3.03;;;16.20;99.90;;;;;;6272245;22;20115;-69
2023/07/18 05:50:17;;;;;;;9.50;3.00;;;16.30;99.90;;;;;;6244706;22;20023;-69
2023/07/18 05:52:43;;;;;;;5.78;2.90;;;16.30;99.90;;;;;;6271798;22;20058;-69
2023/07/18 05:55:09;;;;;;;7.72;2.70;;;16.30;99.90;;;;;;6272543;22;20016;-69
2023/07/18 05:57:35;;;;;;;6.43;2.80;;;16.40;99.90;;;;;;6244934;22;20019;-69
2023/07/18 06:00:05;;;;;;;10.18;3.10;;;16.40;99.90;;;;;;6272101;22;20022;-69
2023/07/18 06:02:31;;;;;;;13.52;2.70;;;16.50;99.90;;;;;;6272237;22;20020;-69
2023/07/18 06:04:56;;;;;;;10.02;2.83;;;16.60;99.90;;;;;;6245325;22;20033;-69
2023/07/18 06:07:22;;;;;;;7.85;3.15;;;16.80;99.90;;;;;;6244555;22;20354;-69
2023/07/18 06:09:52;;;;;;;8.02;2.53;;;16.90;99.90;;;;;;6272976;22;20453;-69
2023/07/18 06:12:18;;;;;;;11.68;3.35;;;17.10;99.90;;;;;;6272742;22;20015;-69
2023/07/18 06:14:43;;;;;;;8.07;2.90;;;17.20;99.90;;;;;;6245074;22;20019;-69
2023/07/18 06:17:09;;;;;;;7.75;2.95;;;17.30;99.90;;;;;;6271974;22;20077;-69
2023/07/18 06:19:35;;;;;;;9.15;3.03;;;17.40;99.90;;;;;;6272328;22;20086;-69
2023/07/18 06:22:01;;;;;;;7.28;2.83;;;17.50;99.90;;;;;;6271883;22;20125;-69
2023/07/18 06:24:26;;;;;;;8.73;2.75;;;17.50;99.90;;;;;;6271685;22;20482;-70
2023/07/18 06:26:52;;;;;;;6.68;2.90;;;17.60;99.90;;;;;;6271519;22;20099;-68
2023/07/18 06:29:19;;;;;;;9.88;2.45;;;17.60;99.90;;;;;;6271091;22;20023;-68
2023/07/18 06:31:46;;;;;;;7.45;2.90;;;17.70;99.90;;;;;;6271400;22;20023;-69
2023/07/18 06:34:12;;;;;;;8.60;2.65;;;17.80;99.90;;;;;;6271744;22;20019;-70
2023/07/18 06:36:38;;;;;;;9.68;2.60;;;17.90;99.90;;;;;;6271420;22;20025;-70
2023/07/18 06:39:05;;;;;;;9.48;2.53;;;18.00;99.90;;;;;;6271268;22;20515;-70
2023/07/18 06:41:32;;;;;;;8.40;2.92;;;18.10;99.90;;;;;;6271671;22;20091;-70
2023/07/18 06:43:58;;;;;;;5.65;2.17;;;18.20;99.90;;;;;;6244126;22;20107;-70
2023/07/18 06:46:24;;;;;;;8.93;2.33;;;18.30;99.90;;;;;;6271553;22;20055;-70
2023/07/18 06:48:52;;;;;;;11.55;2.90;;;18.40;99.90;;;;;;6271933;22;20342;-70
2023/07/18 06:51:18;;;;;;;10.85;2.88;;;18.40;99.90;;;;;;6271196;22;20026;-70
2023/07/18 06:53:43;;;;;;;10.23;2.67;;;18.60;99.90;;;;;;6271475;22;20023;-70
2023/07/18 06:56:09;;;;;;;11.32;2.65;;;18.60;99.90;;;;;;6271515;22;20401;-70
2023/07/18 06:58:35;;;;;;;9.25;2.95;;;18.50;99.90;;;;;;6271717;22;20051;-70
2023/07/18 07:01:00;;;;;;;5.68;2.42;;;18.50;99.90;;;;;;6244269;22;20023;-69
2023/07/18 07:03:26;;;;;;;7.85;2.85;;;18.50;99.90;;;;;;6243880;22;20059;-71
2023/07/18 07:05:52;;;;;;;9.98;2.67;;;18.40;99.90;;;;;;6271448;22;20117;-69
2023/07/18 07:08:19;;;;;;;8.20;3.05;;;18.50;99.90;;;;;;6271782;22;20023;-69
2023/07/18 07:10:45;;;;;;;8.68;2.85;;;18.50;99.90;;;;;;6271507;22;20154;-70
2023/07/18 07:13:12;;;;;;;7.22;2.95;;;18.60;99.90;;;;;;6271400;22;20026;-70
2023/07/18 07:15:38;;;;;;;11.73;2.55;;;18.60;99.90;;;;;;6244096;22;20320;-69
2023/07/18 07:18:05;;;;;;;8.23;2.90;;;18.70;99.90;;;;;;6271662;22;20098;-69
2023/07/18 07:20:34;;;;;;;8.00;2.55;;;18.80;99.90;;;;;;6270027;22;20020;-69
2023/07/18 07:23:00;;;;;;;11.63;3.45;;;18.90;99.90;;;;;;6271184;22;20075;-69
2023/07/18 07:25:27;;;;;;;14.07;2.90;;;19.00;99.90;;;;;;6243909;22;20047;-69
2023/07/18 07:27:53;;;;;;;6.93;2.72;;;19.10;99.90;;;;;;6271770;22;20331;-70
2023/07/18 07:30:20;;;;;;;11.02;2.90;;;19.00;99.90;;;;;;6244341;22;20088;-69
2023/07/18 07:32:49;;;;;;;8.68;2.53;;;19.10;99.90;;;;;;6245714;22;20008;-69
2023/07/18 07:35:19;;;;;;;10.05;3.15;;;19.10;99.90;;;;;;6272681;22;20344;-69
2023/07/18 07:37:46;;;;;;;10.68;3.00;;;19.20;99.90;;;;;;6245863;22;20082;-68
2023/07/18 07:40:12;;;;;;;11.13;2.88;;;19.20;99.90;;;;;;6246003;22;20178;-68
2023/07/18 07:42:38;;;;;;;12.48;3.63;;;19.00;99.90;;;;;;6245923;22;20079;-68
2023/07/18 07:45:05;;;;;;;8.98;2.85;;;19.00;99.90;;;;;;6273726;22;20016;-68
2023/07/18 07:47:31;;;;;;;12.55;3.17;;;19.10;99.90;;;;;;6272916;22;20031;-69
2023/07/18 07:49:57;;;;;;;12.35;3.08;;;19.20;99.90;;;;;;6273198;22;20019;-68
2023/07/18 07:52:22;;;;;;;11.70;3.38;;;19.30;99.90;;;;;;6273247;22;20099;-68
2023/07/18 07:54:48;;;;;;;10.82;3.17;;;19.40;99.90;;;;;;6246019;22;20027;-70
2023/07/18 07:57:15;;;;;;;15.65;3.47;;;19.60;99.90;;;;;;6245608;22;20034;-70
2023/07/18 07:59:42;;;;;;;6.85;3.13;;;19.80;99.90;;;;;;6273216;22;20008;-69
2023/07/18 08:02:08;;;;;;;8.73;3.35;;;19.90;99.90;;;;;;6273156;22;20024;-70
2023/07/18 08:04:36;;;;;;;15.38;3.45;;;20.10;99.90;;;;;;6245628;22;20749;-70
2023/07/18 08:07:03;;;;;;;7.20;3.20;;;20.20;99.90;;;;;;6245840;22;20482;-69
2023/07/18 08:09:29;;;;;;;9.68;3.08;;;20.30;99.90;;;;;;6273380;22;20016;-70
2023/07/18 08:11:55;;;;;;;9.60;3.60;;;20.30;99.90;;;;;;6272711;22;20046;-68
2023/07/18 08:14:21;;;;;;;10.88;3.10;;;20.40;99.90;;;;;;6245801;22;20024;-68
2023/07/18 08:16:47;;;;;;;15.77;3.70;;;20.50;99.90;;;;;;6245929;22;20442;-68
2023/07/18 08:19:13;;;;;;;11.10;3.20;;;20.50;99.90;;;;;;6272822;22;20015;-68
2023/07/18 08:21:39;;;;;;;10.40;2.80;;;20.70;99.90;;;;;;6273027;22;20043;-68
2023/07/18 08:24:05;;;;;;;15.55;3.03;;;20.80;99.90;;;;;;6245805;22;20136;-68
2023/07/18 08:26:30;;;;;;;13.07;2.92;;;20.80;99.90;;;;;;6272830;22;20019;-68
2023/07/18 08:28:56;;;;;;;12.80;2.85;;;20.90;99.90;;;;;;6244468;22;20020;-69
2023/07/18 08:31:22;;;;;;;11.45;2.92;;;21.00;99.90;;;;;;6244532;22;20054;-68
2023/07/18 08:33:47;;;;;;;8.13;2.80;;;21.00;99.90;;;;;;6271975;22;20077;-69
2023/07/18 08:36:13;;;;;;;11.30;2.20;;;21.00;99.90;;;;;;6244409;22;20058;-69
2023/07/18 08:38:39;;;;;;;4.22;2.13;;;21.10;99.90;;;;;;6244399;22;20070;-69
2023/07/18 08:41:07;;;;;;;7.72;2.67;;;21.10;99.90;;;;;;6271406;22;20140;-69
2023/07/18 08:43:34;;;;;;;8.80;2.50;;;21.10;99.90;;;;;;6272496;22;20050;-70
2023/07/18 08:46:03;;;;;;;10.27;2.50;;;21.10;99.90;;;;;;6272568;22;20027;-68
2023/07/18 08:48:30;;;;;;;9.43;2.20;;;20.90;99.90;;;;;;6272465;22;20019;-69
2023/07/18 08:50:59;;;;;;;13.00;2.88;;;21.00;99.90;;;;;;6245513;22;20014;-68
2023/07/18 08:53:25;;;;;;;9.52;2.60;;;20.80;99.90;;;;;;6272948;22;20027;-69
2023/07/18 08:55:52;;;;;;;6.82;2.17;;;20.50;99.90;;;;;;6245500;22;20081;-68
2023/07/18 08:58:22;;;;;;;11.60;1.92;;;20.70;99.90;;;;;;6273116;22;20024;-69
2023/07/18 09:00:48;;;;;;;8.43;2.30;;;20.80;99.90;;;;;;6220515;22;20028;-68
2023/07/18 09:03:14;;;;;;;6.00;2.08;;;20.80;99.90;;;;;;6272497;22;20590;-69
2023/07/18 09:05:40;;;;;;;8.70;1.48;;;20.80;99.90;;;;;;6272616;22;20023;-69
2023/07/18 09:08:06;;;;;;;6.80;1.60;;;21.10;99.90;;;;;;6245142;22;20024;-71
2023/07/18 09:10:32;;;;;;;7.20;1.35;;;21.10;99.90;;;;;;6272493;22;20019;-74
2023/07/18 09:13:04;;;;;;;6.55;1.75;;;21.20;99.90;;;;;;6245091;22;20664;-75
2023/07/18 09:15:33;;;;;;;5.20;1.33;;;21.20;99.90;;;;;;6272089;22;20031;-76
2023/07/18 09:18:07;;;;;;;5.72;1.30;;;21.30;99.90;;;;;;6245185;22;20745;-75
2023/07/18 09:20:33;;;;;;;4.35;1.13;;;21.50;99.90;;;;;;6219923;22;20020;-75
2023/07/18 09:23:02;;;;;;;3.45;1.00;;;21.60;99.90;;;;;;6272643;22;20023;-75
2023/07/18 09:25:29;;;;;;;6.22;1.30;;;21.60;99.90;;;;;;6272133;22;20032;-75
2023/07/18 09:27:56;;;;;;;2.90;1.25;;;21.70;99.90;;;;;;6245210;22;20073;-76
2023/07/18 09:30:26;;;;;;;6.50;1.70;;;21.70;99.90;;;;;;6245054;22;20020;-75
2023/07/18 09:32:53;;;;;;;3.03;1.27;;;21.80;99.90;;;;;;6272694;22;20070;-75
2023/07/18 09:35:19;;;;;;;3.22;1.00;;;21.80;99.90;;;;;;6245158;22;20023;-75
2023/07/18 09:37:46;;;;;;;1.95;0.80;;;21.90;99.90;;;;;;6244884;22;20030;-75
2023/07/18 09:40:17;;;;;;;9.32;1.20;;;21.90;99.90;;;;;;6245075;22;20099;-75
2023/07/18 09:42:47;;;;;;;5.70;1.00;;;21.90;99.90;;;;;;6244692;22;20027;-75
2023/07/18 09:45:15;;;;;;;4.47;1.00;;;21.90;99.90;;;;;;6244600;22;20368;-75
2023/07/18 09:47:42;;;;;;;2.50;0.90;;;22.00;99.90;;;;;;6244978;22;20086;-75
2023/07/18 09:50:13;;;;;;;3.97;1.13;;;22.00;99.90;;;;;;6272083;22;20346;-76
2023/07/18 09:52:51;;;;;;;3.00;1.00;;;22.00;99.90;;;;;;6272646;22;20019;-75
2023/07/18 09:55:26;;;;;;;4.55;0.95;;;22.00;99.90;;;;;;6245190;22;20099;-70
2023/07/18 09:57:55;;;;;;;2.65;1.00;;;22.10;99.90;;;;;;6245225;22;20681;-70
2023/07/18 10:00:23;;;;;;;4.78;0.90;;;22.10;99.90;;;;;;6272083;22;20077;-70
2023/07/18 10:02:49;;;;;;;2.47;0.88;;;22.20;99.90;;;;;;6272557;22;20051;-70
2023/07/18 10:05:15;;;;;;;3.67;1.00;;;22.20;99.90;;;;;;6244988;22;20026;-70
2023/07/18 10:07:43;;;;;;;4.55;0.93;;;22.20;99.90;;;;;;6272145;22;20081;-70
2023/07/18 10:10:10;;;;;;;2.78;0.77;;;22.30;99.90;;;;;;6244866;22;20032;-70
2023/07/18 10:12:54;;;;;;;2.67;1.00;;;22.40;99.90;;;;;;6244493;22;20062;-70
2023/07/18 10:15:21;;;;;;;1.88;1.00;;;22.50;99.90;;;;;;6244409;22;20015;-70
2023/07/18 10:17:47;;;;;;;3.85;0.80;;;22.50;99.90;;;;;;6244791;22;20454;-70
2023/07/18 10:20:20;;;;;;;1.63;0.85;;;22.50;99.90;;;;;;6244802;22;20023;-70
2023/07/18 10:22:59;;;;;;;3.25;0.90;;;22.70;99.90;;;;;;6244739;22;20035;-70
2023/07/18 10:25:31;;;;;;;2.03;0.93;;;22.70;99.90;;;;;;6272364;22;20348;-70
2023/07/18 10:27:59;;;;;;;4.72;1.00;;;22.80;99.90;;;;;;6272273;22;20403;-70
2023/07/18 10:30:38;;;;;;;2.70;0.98;;;22.80;99.90;;;;;;6244778;22;20042;-70
2023/07/18 10:33:04;;;;;;;3.53;0.90;;;22.80;99.90;;;;;;6271972;22;20054;-70
2023/07/18 10:35:29;;;;;;;3.35;0.85;;;22.80;99.90;;;;;;6272052;22;20023;-70
2023/07/18 10:38:03;;;;;;;2.67;0.88;;;22.80;99.90;;;;;;6271647;22;20065;-70
2023/07/18 10:40:44;;;;;;;4.82;0.90;;;22.70;99.90;;;;;;6244690;22;20027;-70
2023/07/18 10:43:15;;;;;;;1.25;0.60;;;22.80;99.90;;;;;;6271733;22;20062;-70
2023/07/18 10:45:42;;;;;;;0.75;0.55;;;22.90;99.90;;;;;;6272451;22;20038;-70
2023/07/18 10:48:20;;;;;;;4.40;1.10;;;22.90;99.90;;;;;;6271615;22;20043;-70
2023/07/18 10:50:47;;;;;;;3.33;0.77;;;22.80;99.90;;;;;;6243944;22;20018;-70
2023/07/18 10:53:20;;;;;;;1.85;0.80;;;22.90;99.90;;;;;;6244264;22;20020;-71
2023/07/18 10:55:47;;;;;;;2.97;0.80;;;22.90;99.90;;;;;;6244081;22;20016;-70
2023/07/18 10:58:18;;;;;;;1.88;0.90;;;22.90;99.90;;;;;;6243613;22;20019;-70
2023/07/18 11:00:45;;;;;;;3.33;1.00;;;22.90;99.90;;;;;;6271664;22;20027;-70
2023/07/18 11:03:27;;;;;;;1.88;0.70;;;22.90;99.90;;;;;;6243918;22;20089;-70
2023/07/18 11:05:53;;;;;;;1.95;0.65;;;23.10;99.90;;;;;;6271508;22;20012;-70
2023/07/18 11:08:25;;;;;;;2.22;0.85;;;23.10;99.90;;;;;;6244290;22;20418;-70
2023/07/18 11:10:58;;;;;;;;;;;23.00;99.90;;;;;;6244496;22;20045;-70
2023/07/18 11:13:37;;;;;;;2.30;1.10;;;23.00;99.90;;;;;;6218814;22;19916;-70
2023/07/18 11:16:08;;;;;;;1.70;0.68;;;23.00;99.90;;;;;;6244140;22;20411;-70
2023/07/18 11:18:40;;;;;;;2.72;0.80;;;23.20;99.90;;;;;;6244672;22;20024;-70
2023/07/18 11:21:07;;;;;;;2.13;0.90;;;23.30;99.90;;;;;;6244071;22;20024;-70
2023/07/18 11:23:34;;;;;;;2.05;0.82;;;23.30;99.90;;;;;;6271048;22;20469;-70
2023/07/18 11:26:08;;;;;;;4.07;1.02;;;23.30;99.90;;;;;;6243709;22;20019;-70
2023/07/18 11:28:35;;;;;;;1.60;0.88;;;23.40;99.90;;;;;;6244125;22;20070;-70
2023/07/18 11:31:01;;;;;;;1.80;0.93;;;23.40;99.90;;;;;;6244123;22;20024;-70
2023/07/18 11:33:31;;;;;;;3.80;0.95;;;23.40;99.90;;;;;;6271681;22;20031;-70
2023/07/18 11:35:57;;;;;;;2.97;1.02;;;23.40;99.90;;;;;;6271661;22;20012;-70
2023/07/18 11:38:32;;;;;;;2.65;1.30;;;23.40;99.90;;;;;;6271415;22;20402;-70
2023/07/18 11:40:59;;;;;;;6.25;0.90;;;23.50;99.90;;;;;;6244057;22;20609;-70
2023/07/18 11:43:29;;;;;;;1.13;0.70;;;23.50;99.90;;;;;;6271374;22;20024;-70
2023/07/18 11:45:56;;;;;;;4.10;0.65;;;23.50;99.90;;;;;;6244155;22;20015;-70
2023/07/18 11:48:22;;;;;;;4.32;1.02;;;23.60;99.90;;;;;;6245003;22;20034;-69
2023/07/18 11:50:48;;;;;;;2.67;0.70;;;23.60;99.90;;;;;;6244542;22;20019;-69
2023/07/18 11:53:25;;;;;;;4.00;1.00;;;23.70;99.90;;;;;;6271432;22;20023;-70
2023/07/18 11:55:52;;;;;;;1.60;0.88;;;23.80;99.90;;;;;;6271507;22;20047;-69
2023/07/18 11:58:17;;;;;;;1.77;0.90;;;23.80;99.90;;;;;;6271604;22;20035;-71
2023/07/18 12:00:44;;;;;;;3.88;0.90;;;23.90;99.90;;;;;;6271245;22;20017;-71
2023/07/18 12:03:10;;;;;;;2.78;0.73;;;23.90;99.90;;;;;;6243986;22;20024;-69
2023/07/18 12:05:35;;;;;;;1.23;0.70;;;24.00;99.90;;;;;;6243957;22;20081;-71
2023/07/18 12:08:01;;;;;;;5.05;0.88;;;24.00;99.90;;;;;;6271152;22;20054;-70
2023/07/18 12:10:27;;;;;;;1.92;0.60;;;23.90;99.90;;;;;;6271243;22;20019;-71
2023/07/18 12:12:53;;;;;;;2.15;0.80;;;24.00;99.90;;;;;;6271185;22;20033;-71
2023/07/18 12:15:19;;;;;;;3.67;0.50;;;23.90;99.90;;;;;;6243891;22;20028;-71
2023/07/18 12:17:44;;;;;;;6.78;0.85;;;23.90;99.90;;;;;;6270565;22;20089;-71
2023/07/18 12:20:11;;;;;;;7.97;0.75;;;23.80;99.90;;;;;;6271084;22;20081;-71
2023/07/18 12:22:37;;;;;;;2.88;0.80;;;23.60;99.90;;;;;;6271898;22;20020;-71
2023/07/18 12:25:03;;;;;;;3.17;1.13;;;23.60;99.90;;;;;;6272816;22;20347;-71
2023/07/18 12:27:30;;;;;;;2.72;0.70;;;23.60;99.90;;;;;;6245866;22;20030;-71
2023/07/18 12:29:56;;;;;;;1.30;0.70;;;23.80;99.90;;;;;;6272593;22;20011;-71
2023/07/18 12:32:21;;;;;;;3.13;0.80;;;23.80;99.90;;;;;;6245653;22;20023;-71
2023/07/18 12:34:47;;;;;;;2.28;0.70;;;23.90;99.90;;;;;;6245671;22;20030;-70
2023/07/18 12:37:13;;;;;;;1.80;0.70;;;23.90;99.90;;;;;;6245460;22;20026;-71
2023/07/18 12:39:39;;;;;;;2.58;0.90;;;23.90;99.90;;;;;;6245432;22;20078;-71
2023/07/18 12:42:05;;;;;;;1.35;0.68;;;23.90;99.90;;;;;;6245260;22;20019;-71
2023/07/18 12:44:41;;;;;;;2.13;0.65;;;24.00;99.90;;;;;;6273345;22;20016;-71